Time;durP1;ratioP1;P1;durP2;ratioP2;P2;SDS_P1;SDS_P2;PMS_P1;PMS_P2;Temp;Humidity;BMP_temperature;BMP_pressure;BME280_temperature;BME280_humidity;BME280_pressure;Samples;Min_cycle;Max_cycle;Signal;HPM_P1;HPM_P2
2024/02/19 00:01:50;;;;;;;11.02;6.70;;;;;;;6.49;100.00;97773.31;5021703;28;20044;-71
2024/02/19 00:04:16;;;;;;;9.60;6.25;;;;;;;6.46;100.00;97765.75;5018382;28;20116;-71
2024/02/19 00:06:41;;;;;;;9.52;5.85;;;;;;;6.47;100.00;97770.09;5023815;28;20484;-71
2024/02/19 00:09:07;;;;;;;8.85;5.95;;;;;;;6.53;100.00;97762.59;5015697;28;20092;-72
2024/02/19 00:11:32;;;;;;;9.40;5.82;;;;;;;6.48;100.00;97758.91;5023808;28;20041;-71
2024/02/19 00:13:58;;;;;;;7.53;5.20;;;;;;;6.39;100.00;97755.34;5024555;28;20095;-71
2024/02/19 00:16:23;;;;;;;13.13;5.03;;;;;;;6.43;100.00;97758.25;5031018;28;20052;-69
2024/02/19 00:18:49;;;;;;;5.85;4.03;;;;;;;6.39;100.00;97751.81;5024369;28;20558;-71
2024/02/19 00:21:17;;;;;;;7.38;4.43;;;;;;;6.39;100.00;97752.63;5019013;28;20132;-71
2024/02/19 00:23:42;;;;;;;6.30;3.95;;;;;;;6.40;100.00;97748.78;5005189;28;20631;-70
2024/02/19 00:26:08;;;;;;;6.75;3.80;;;;;;;6.30;100.00;97757.19;5008177;28;20084;-71
2024/02/19 00:28:33;;;;;;;4.82;3.28;;;;;;;6.30;100.00;97755.31;5024411;28;20041;-71
2024/02/19 00:30:59;;;;;;;7.47;3.50;;;;;;;6.30;100.00;97758.03;5023903;28;20057;-73
2024/02/19 00:33:24;;;;;;;6.70;3.63;;;;;;;6.30;100.00;97759.91;5018371;28;20044;-73
2024/02/19 00:35:50;;;;;;;5.43;3.33;;;;;;;6.28;100.00;97762.97;5004667;28;20049;-72
2024/02/19 00:38:15;;;;;;;4.90;3.25;;;;;;;6.27;100.00;97771.44;5017505;28;20045;-73
2024/02/19 00:40:41;;;;;;;6.97;3.33;;;;;;;6.38;100.00;97763.81;5023985;28;20124;-73
2024/02/19 00:43:06;;;;;;;4.38;3.05;;;;;;;6.42;100.00;97778.41;5018196;28;20601;-71
2024/02/19 00:45:32;;;;;;;6.55;3.65;;;;;;;6.41;100.00;97776.78;5004339;28;20060;-71
2024/02/19 00:47:57;;;;;;;8.20;3.47;;;;;;;6.47;100.00;97770.91;5022363;28;20064;-71
2024/02/19 00:50:23;;;;;;;5.20;2.95;;;;;;;6.45;100.00;97770.41;5018774;28;20107;-71
2024/02/19 00:52:48;;;;;;;5.45;3.45;;;;;;;6.40;100.00;97769.75;5023578;28;20041;-71
2024/02/19 00:55:13;;;;;;;4.53;3.20;;;;;;;6.45;100.00;97764.97;5017286;28;20037;-72
2024/02/19 00:57:39;;;;;;;5.18;3.13;;;;;;;6.44;100.00;97768.78;5022585;28;20420;-71
2024/02/19 01:00:05;;;;;;;4.93;3.47;;;;;;;6.51;100.00;97771.88;5011781;28;20030;-71
2024/02/19 01:02:31;;;;;;;8.20;3.20;;;;;;;6.51;100.00;97768.34;5017534;28;20060;-74
2024/02/19 01:04:58;;;;;;;7.85;3.22;;;;;;;6.45;100.00;97770.41;5022130;28;20037;-72
2024/02/19 01:07:24;;;;;;;7.60;3.30;;;;;;;6.41;100.00;97769.44;5002856;28;20512;-72
2024/02/19 01:09:50;;;;;;;5.00;2.83;;;;;;;6.45;100.00;97769.63;5022634;28;20056;-73
2024/02/19 01:12:15;;;;;;;7.18;3.17;;;;;;;6.37;100.00;97773.09;5018745;28;20037;-72
2024/02/19 01:14:41;;;;;;;5.25;3.15;;;;;;;6.34;100.00;97770.97;5022625;28;20057;-73
2024/02/19 01:17:08;;;;;;;5.60;3.58;;;;;;;6.35;100.00;97761.72;5029726;28;20041;-73
2024/02/19 01:19:34;;;;;;;5.90;3.25;;;;;;;6.36;100.00;97769.56;5025928;28;20053;-73
2024/02/19 01:21:59;;;;;;;4.43;3.00;;;;;;;6.40;100.00;97772.47;5021958;28;20243;-72
2024/02/19 01:24:25;;;;;;;5.10;3.50;;;;;;;6.34;100.00;97763.66;5007550;28;20109;-72
2024/02/19 01:26:51;;;;;;;5.60;3.45;;;;;;;6.40;100.00;97764.31;5017588;28;20092;-72
2024/02/19 01:29:17;;;;;;;5.78;3.38;;;;;;;6.42;100.00;97768.31;5009087;28;20524;-72
2024/02/19 01:31:43;;;;;;;5.63;3.30;;;;;;;6.37;100.00;97763.00;5021492;28;20615;-72
2024/02/19 01:34:08;;;;;;;4.95;3.05;;;;;;;6.38;100.00;97758.38;5017071;28;20037;-72
2024/02/19 01:36:34;;;;;;;4.50;3.05;;;;;;;6.37;100.00;97762.19;5020474;28;20529;-72
2024/02/19 01:38:59;;;;;;;4.00;2.95;;;;;;;6.38;100.00;97756.44;5020828;28;20048;-72
2024/02/19 01:41:25;;;;;;;3.88;2.80;;;;;;;6.39;100.00;97759.97;5016895;28;20042;-72
2024/02/19 01:43:50;;;;;;;4.00;2.60;;;;;;;6.40;100.00;97756.13;5032162;28;20068;-72
2024/02/19 01:46:17;;;;;;;3.97;3.00;;;;;;;6.41;100.00;97753.13;5031499;28;20037;-74
2024/02/19 01:48:44;;;;;;;5.03;3.05;;;;;;;6.45;100.00;97759.53;5025834;28;20063;-73
2024/02/19 01:51:10;;;;;;;4.68;3.33;;;;;;;6.49;100.00;97756.97;5019637;28;20096;-70
2024/02/19 01:53:36;;;;;;;4.13;2.40;;;;;;;6.51;100.00;97758.25;5027099;28;20447;-72
2024/02/19 01:56:02;;;;;;;3.75;2.55;;;;;;;6.57;100.00;97761.66;5027296;28;20448;-71
2024/02/19 01:58:29;;;;;;;3.85;2.45;;;;;;;6.54;100.00;97769.66;5020723;28;20124;-72
2024/02/19 02:00:58;;;;;;;3.80;2.80;;;;;;;6.58;100.00;97760.53;5025801;28;20048;-72
2024/02/19 02:03:25;;;;;;;5.03;2.88;;;;;;;6.60;100.00;97762.94;5018520;28;20492;-73
2024/02/19 02:05:51;;;;;;;4.50;2.63;;;;;;;6.57;100.00;97767.13;5022546;28;20511;-72
2024/02/19 02:08:17;;;;;;;4.68;2.45;;;;;;;6.58;100.00;97771.41;5016893;28;20116;-71
2024/02/19 02:10:42;;;;;;;3.95;2.63;;;;;;;6.64;100.00;97766.63;5017523;28;20443;-72
2024/02/19 02:13:08;;;;;;;4.40;2.75;;;;;;;6.61;100.00;97762.63;5015701;28;20503;-70
2024/02/19 02:15:34;;;;;;;3.83;2.42;;;;;;;6.64;100.00;97763.91;5021239;28;20037;-71
2024/02/19 02:18:00;;;;;;;3.78;2.70;;;;;;;6.63;100.00;97760.41;5031373;28;20094;-72
2024/02/19 02:20:26;;;;;;;5.65;2.70;;;;;;;6.64;100.00;97755.75;5011952;28;20061;-72
2024/02/19 02:22:52;;;;;;;3.22;2.40;;;;;;;6.67;100.00;97749.69;5003512;28;20496;-72
2024/02/19 02:25:18;;;;;;;5.55;2.75;;;;;;;6.64;100.00;97744.84;5000592;28;20090;-70
2024/02/19 02:27:43;;;;;;;4.75;2.50;;;;;;;6.62;100.00;97753.34;5020407;28;20389;-72
2024/02/19 02:30:11;;;;;;;5.35;2.63;;;;;;;6.61;100.00;97740.03;5017947;28;20602;-72
2024/02/19 02:32:37;;;;;;;3.95;2.50;;;;;;;6.69;100.00;97745.50;5020910;28;20171;-73
2024/02/19 02:35:03;;;;;;;4.57;2.50;;;;;;;6.69;100.00;97745.50;4998738;28;20128;-72
2024/02/19 02:37:30;;;;;;;3.50;2.10;;;;;;;6.82;100.00;97743.78;5020064;28;20053;-71
2024/02/19 02:39:55;;;;;;;3.20;2.40;;;;;;;6.82;100.00;97738.34;5019510;28;20041;-72
2024/02/19 02:42:21;;;;;;;3.90;1.98;;;;;;;6.78;100.00;97745.53;5015999;28;20943;-75
2024/02/19 02:44:46;;;;;;;2.80;2.08;;;;;;;6.78;100.00;97748.28;5002896;28;20071;-75
2024/02/19 02:47:12;;;;;;;3.60;2.15;;;;;;;6.76;100.00;97755.16;4996444;28;20766;-72
2024/02/19 02:49:37;;;;;;;3.20;2.13;;;;;;;6.82;100.00;97745.72;5001164;28;20056;-72
2024/02/19 02:52:03;;;;;;;2.80;2.00;;;;;;;6.81;100.00;97753.09;5008614;28;20045;-74
2024/02/19 02:54:28;;;;;;;3.03;2.10;;;;;;;6.76;100.00;97745.06;5018428;28;20552;-72
2024/02/19 02:56:53;;;;;;;3.85;2.42;;;;;;;6.76;100.00;97742.34;5018626;28;20069;-73
2024/02/19 02:59:19;;;;;;;2.33;1.77;;;;;;;6.77;100.00;97741.22;5006500;28;20037;-71
2024/02/19 03:01:44;;;;;;;3.83;2.17;;;;;;;6.74;100.00;97735.63;5019108;28;20033;-72
2024/02/19 03:04:09;;;;;;;3.13;2.10;;;;;;;6.83;100.00;97734.50;4997447;28;20121;-73
2024/02/19 03:06:35;;;;;;;3.50;2.20;;;;;;;6.77;100.00;97726.78;5019187;28;20038;-72
2024/02/19 03:09:00;;;;;;;4.13;2.00;;;;;;;6.73;100.00;97737.50;5015074;28;20181;-73
2024/02/19 03:11:26;;;;;;;3.17;2.38;;;;;;;6.73;100.00;97740.25;5014078;28;20222;-72
2024/02/19 03:13:51;;;;;;;3.40;2.45;;;;;;;6.72;100.00;97732.38;5020493;28;20099;-74
2024/02/19 03:16:17;;;;;;;3.42;2.45;;;;;;;6.77;100.00;97735.78;5015292;28;20053;-73
2024/02/19 03:18:43;;;;;;;6.90;2.90;;;;;;;6.79;100.00;97727.28;5021903;28;20037;-72
2024/02/19 03:21:11;;;;;;;5.65;2.75;;;;;;;6.77;100.00;97734.97;5026092;28;20039;-71
2024/02/19 03:23:36;;;;;;;3.25;2.30;;;;;;;6.72;100.00;97735.94;5019425;28;20048;-70
2024/02/19 03:26:03;;;;;;;3.47;2.58;;;;;;;6.74;100.00;97720.06;5003299;28;20037;-71
2024/02/19 03:28:29;;;;;;;5.03;2.88;;;;;;;6.77;100.00;97724.91;5019232;28;20659;-72
2024/02/19 03:30:54;;;;;;;3.80;2.67;;;;;;;6.74;100.00;97732.91;5019257;28;20045;-71
2024/02/19 03:33:19;;;;;;;5.07;3.00;;;;;;;6.72;100.00;97735.09;5013570;28;20045;-72
2024/02/19 03:35:45;;;;;;;5.43;2.53;;;;;;;6.81;100.00;97736.75;5016241;28;20045;-71
2024/02/19 03:38:10;;;;;;;4.40;2.78;;;;;;;6.80;100.00;97731.63;5012390;28;20178;-72
2024/02/19 03:40:36;;;;;;;5.40;2.47;;;;;;;6.78;100.00;97733.84;5019178;28;20140;-72
2024/02/19 03:43:03;;;;;;;3.70;2.25;;;;;;;6.75;100.00;97740.72;4998879;28;20045;-71
2024/02/19 03:45:28;;;;;;;4.05;2.60;;;;;;;6.88;100.00;97739.81;5000601;28;20061;-72
2024/02/19 03:47:54;;;;;;;4.18;2.67;;;;;;;6.84;100.00;97738.03;5019250;28;20073;-72
2024/02/19 03:50:20;;;;;;;3.13;2.30;;;;;;;6.84;100.00;97751.66;4978726;28;20655;-72
2024/02/19 03:52:46;;;;;;;3.22;2.50;;;;;;;6.83;100.00;97739.97;5018700;28;20543;-72
2024/02/19 03:55:11;;;;;;;3.28;2.30;;;;;;;6.81;100.00;97738.69;5013883;28;20041;-72
2024/02/19 03:57:36;;;;;;;3.33;2.40;;;;;;;6.82;100.00;97737.53;5019294;28;20057;-73
2024/02/19 04:00:05;;;;;;;3.70;2.80;;;;;;;6.78;100.00;97739.31;5017378;28;20038;-74
2024/02/19 04:02:30;;;;;;;5.80;2.80;;;;;;;6.75;100.00;97735.28;5019034;28;20053;-71
2024/02/19 04:04:56;;;;;;;4.00;3.03;;;;;;;6.77;100.00;97745.84;5018094;28;20041;-72
2024/02/19 04:07:21;;;;;;;3.67;2.65;;;;;;;6.80;100.00;97742.50;5014072;28;20142;-72
2024/02/19 04:09:46;;;;;;;3.75;2.67;;;;;;;6.83;100.00;97741.88;5015326;28;20072;-72
2024/02/19 04:12:12;;;;;;;4.07;2.60;;;;;;;6.83;100.00;97734.50;5014959;28;20132;-72
2024/02/19 04:14:41;;;;;;;4.47;2.35;;;;;;;6.87;100.00;97731.97;5019426;28;20427;-73
2024/02/19 04:17:06;;;;;;;3.00;2.30;;;;;;;6.84;100.00;97735.31;5013775;28;20049;-72
2024/02/19 04:19:32;;;;;;;4.03;2.30;;;;;;;6.82;100.00;97738.34;5028629;28;20047;-73
2024/02/19 04:21:57;;;;;;;3.30;2.50;;;;;;;6.83;100.00;97736.44;5021808;28;20045;-72
2024/02/19 04:24:23;;;;;;;3.00;2.38;;;;;;;6.81;100.00;97739.47;5005751;28;20046;-73
2024/02/19 04:26:48;;;;;;;4.50;2.72;;;;;;;6.83;100.00;97742.69;5011591;28;20248;-72
2024/02/19 04:29:14;;;;;;;3.45;2.67;;;;;;;6.85;100.00;97747.81;5014121;28;20540;-72
2024/02/19 04:31:41;;;;;;;3.35;2.10;;;;;;;6.90;100.00;97747.66;5018962;28;20041;-72
2024/02/19 04:34:07;;;;;;;4.70;2.30;;;;;;;6.89;100.00;97738.69;5012586;28;20179;-72
2024/02/19 04:36:32;;;;;;;3.42;2.17;;;;;;;6.88;100.00;97742.53;5019727;28;20041;-72
2024/02/19 04:38:58;;;;;;;3.95;2.33;;;;;;;6.92;100.00;97748.16;5018311;28;20042;-72
2024/02/19 04:41:24;;;;;;;4.25;2.08;;;;;;;6.91;100.00;97743.03;5010509;28;20055;-72
2024/02/19 04:43:49;;;;;;;3.85;2.35;;;;;;;6.96;100.00;97751.84;5018836;28;20224;-73
2024/02/19 04:46:14;;;;;;;2.50;2.10;;;;;;;6.97;100.00;97745.28;5013827;28;20045;-72
2024/02/19 04:48:40;;;;;;;4.40;2.17;;;;;;;6.91;100.00;97751.97;5020222;28;20049;-72
2024/02/19 04:51:05;;;;;;;3.35;2.03;;;;;;;6.96;100.00;97748.31;4999289;28;20037;-72
2024/02/19 04:53:31;;;;;;;3.38;2.30;;;;;;;7.01;100.00;97748.19;5021593;28;20516;-71
2024/02/19 04:55:57;;;;;;;3.08;2.25;;;;;;;6.99;100.00;97751.22;5021912;28;20103;-72
2024/02/19 04:58:23;;;;;;;2.95;2.00;;;;;;;7.01;100.00;97748.97;5017356;28;20065;-72
2024/02/19 05:00:48;;;;;;;4.07;2.13;;;;;;;7.17;100.00;97751.25;5021967;28;20037;-73
2024/02/19 05:03:14;;;;;;;3.13;2.03;;;;;;;7.18;100.00;97748.19;5019547;28;20130;-75
2024/02/19 05:05:39;;;;;;;2.75;1.80;;;;;;;7.12;100.00;97732.34;5021949;28;20127;-71
2024/02/19 05:08:05;;;;;;;2.78;2.10;;;;;;;7.10;100.00;97751.72;5017789;28;20049;-71
2024/02/19 05:10:30;;;;;;;4.00;2.28;;;;;;;7.12;100.00;97743.22;5031484;28;20049;-75
2024/02/19 05:12:56;;;;;;;3.53;2.30;;;;;;;7.11;100.00;97747.06;5041347;28;20136;-74
2024/02/19 05:15:22;;;;;;;3.80;2.33;;;;;;;7.06;100.00;97745.31;5025834;28;20060;-75
2024/02/19 05:17:47;;;;;;;3.63;2.47;;;;;;;7.04;100.00;97737.44;5029690;28;20576;-73
2024/02/19 05:20:13;;;;;;;2.65;2.20;;;;;;;7.00;100.00;97736.47;5026032;28;20036;-73
2024/02/19 05:22:38;;;;;;;7.38;2.20;;;;;;;7.12;100.00;97730.41;5012611;28;20133;-75
2024/02/19 05:25:04;;;;;;;5.68;2.90;;;;;;;7.01;100.00;97732.63;5006005;28;20046;-72
2024/02/19 05:27:29;;;;;;;3.53;2.63;;;;;;;7.04;100.00;97732.00;5025213;28;20045;-75
2024/02/19 05:29:55;;;;;;;5.65;2.70;;;;;;;6.96;100.00;97737.44;5022980;28;20481;-73
2024/02/19 05:32:22;;;;;;;4.00;2.60;;;;;;;6.93;100.00;97738.06;5017070;28;21014;-74
2024/02/19 05:34:48;;;;;;;4.80;3.10;;;;;;;6.85;100.00;97743.16;5022666;28;20138;-73
2024/02/19 05:37:14;;;;;;;5.38;3.22;;;;;;;6.85;100.00;97745.09;5016090;28;20089;-72
2024/02/19 05:39:39;;;;;;;3.70;3.03;;;;;;;6.87;100.00;97740.91;5021203;28;20528;-73
2024/02/19 05:42:05;;;;;;;4.60;3.03;;;;;;;6.86;100.00;97744.78;5016163;28;20049;-73
2024/02/19 05:44:31;;;;;;;6.28;3.60;;;;;;;6.82;100.00;97737.53;5021782;28;20663;-74
2024/02/19 05:46:57;;;;;;;5.35;3.70;;;;;;;6.81;100.00;97738.69;5020803;28;20136;-74
2024/02/19 05:49:22;;;;;;;5.03;3.40;;;;;;;6.77;100.00;97743.97;5016812;28;20360;-73
2024/02/19 05:51:47;;;;;;;5.00;3.92;;;;;;;6.72;100.00;97749.53;5022782;28;20132;-74
2024/02/19 05:54:13;;;;;;;5.25;3.50;;;;;;;6.73;100.00;97742.97;5015455;28;20029;-73
2024/02/19 05:56:41;;;;;;;5.15;3.42;;;;;;;6.71;100.00;97747.94;5020465;28;20073;-73
2024/02/19 05:59:06;;;;;;;5.93;3.60;;;;;;;6.72;100.00;97762.34;5016063;28;20033;-74
2024/02/19 06:01:32;;;;;;;3.35;3.00;;;;;;;6.72;100.00;97757.72;5021153;28;20045;-74
2024/02/19 06:03:57;;;;;;;6.93;3.78;;;;;;;6.76;100.00;97755.16;5003270;28;20048;-74
2024/02/19 06:06:23;;;;;;;5.63;3.47;;;;;;;6.77;100.00;97756.75;4999719;28;20048;-74
2024/02/19 06:08:48;;;;;;;5.40;4.00;;;;;;;6.82;100.00;97757.41;5015595;28;20034;-74
2024/02/19 06:11:14;;;;;;;6.43;3.58;;;;;;;6.80;100.00;97748.75;5007503;28;20048;-73
2024/02/19 06:13:39;;;;;;;4.63;3.17;;;;;;;6.85;100.00;97755.97;5021686;28;20057;-74
2024/02/19 06:16:05;;;;;;;4.25;3.20;;;;;;;6.83;100.00;97759.03;5015758;28;20038;-72
2024/02/19 06:18:31;;;;;;;5.30;3.30;;;;;;;6.83;100.00;97758.22;5019715;28;20428;-70
2024/02/19 06:20:56;;;;;;;4.50;3.40;;;;;;;6.82;100.00;97762.84;5026116;28;20033;-73
2024/02/19 06:23:22;;;;;;;5.75;3.83;;;;;;;6.82;100.00;97762.06;5033600;28;20045;-75
2024/02/19 06:25:48;;;;;;;6.53;4.22;;;;;;;6.84;100.00;97763.34;5012351;28;20654;-75
2024/02/19 06:28:13;;;;;;;4.00;3.58;;;;;;;6.92;100.00;97766.41;5015511;28;20120;-74
2024/02/19 06:30:39;;;;;;;6.50;3.60;;;;;;;6.90;100.00;97769.47;5003286;28;20064;-74
2024/02/19 06:33:05;;;;;;;5.10;3.80;;;;;;;6.92;100.00;97772.66;5013998;28;20400;-74
2024/02/19 06:35:30;;;;;;;4.50;3.30;;;;;;;7.01;100.00;97769.97;5001654;28;20067;-74
2024/02/19 06:37:56;;;;;;;5.78;3.35;;;;;;;7.00;100.00;97779.25;5020471;28;20064;-73
2024/02/19 06:40:21;;;;;;;4.93;3.55;;;;;;;7.07;100.00;97777.66;5015270;28;21156;-73
2024/02/19 06:42:47;;;;;;;5.50;3.97;;;;;;;7.08;100.00;97776.53;5019978;28;20037;-73
2024/02/19 06:45:12;;;;;;;4.60;3.55;;;;;;;7.04;100.00;97774.75;4998129;28;20120;-75
2024/02/19 06:47:39;;;;;;;4.50;3.10;;;;;;;7.10;100.00;97764.53;5020086;28;20045;-73
2024/02/19 06:50:05;;;;;;;6.32;4.65;;;;;;;7.13;100.00;97755.72;5015014;28;20125;-74
2024/02/19 06:52:30;;;;;;;5.05;4.13;;;;;;;7.00;100.00;97760.19;5018394;28;20048;-75
2024/02/19 06:54:56;;;;;;;8.63;3.83;;;;;;;6.92;100.00;97763.69;5018742;28;20034;-74
2024/02/19 06:57:22;;;;;;;6.70;4.18;;;;;;;6.87;100.00;97762.72;5015367;28;20196;-75
2024/02/19 06:59:48;;;;;;;5.68;4.28;;;;;;;6.97;100.00;97766.25;5021415;28;20501;-71
2024/02/19 07:02:13;;;;;;;5.05;4.25;;;;;;;7.02;100.00;97768.84;5017200;28;20113;-71
2024/02/19 07:04:39;;;;;;;6.90;4.60;;;;;;;7.07;100.00;97768.69;5008070;28;20057;-71
2024/02/19 07:07:08;;;;;;;7.65;4.75;;;;;;;7.24;100.00;97785.06;5012098;28;20048;-72
2024/02/19 07:09:38;;;;;;;4.70;3.20;;;;;;;7.30;100.00;97793.09;5007042;28;20090;-71
2024/02/19 07:12:04;;;;;;;6.05;4.40;;;;;;;7.43;100.00;97805.78;4993602;28;20053;-70
2024/02/19 07:14:30;;;;;;;6.03;3.88;;;;;;;7.38;100.00;97806.75;5016606;28;20049;-71
2024/02/19 07:16:56;;;;;;;11.23;8.52;;;;;;;7.32;100.00;97808.00;5005907;28;20038;-71
2024/02/19 07:19:22;;;;;;;7.88;6.40;;;;;;;7.27;100.00;97810.88;4994157;28;20053;-72
2024/02/19 07:21:47;;;;;;;6.65;5.15;;;;;;;7.24;100.00;97820.50;5007101;28;20026;-72
2024/02/19 07:24:13;;;;;;;4.47;3.92;;;;;;;7.37;100.00;97817.97;5015875;28;20045;-71
2024/02/19 07:26:38;;;;;;;4.95;3.70;;;;;;;7.43;100.00;97813.97;5013358;28;20087;-71
2024/02/19 07:29:04;;;;;;;5.25;3.78;;;;;;;7.52;100.00;97824.88;5014927;28;20560;-71
2024/02/19 07:31:30;;;;;;;7.20;3.50;;;;;;;7.56;100.00;97829.38;5000691;28;20699;-72
2024/02/19 07:33:55;;;;;;;6.50;3.90;;;;;;;7.63;100.00;97843.34;5007057;28;20041;-72
2024/02/19 07:36:22;;;;;;;5.13;2.97;;;;;;;7.71;100.00;97840.94;5006277;28;20073;-72
2024/02/19 07:38:47;;;;;;;7.70;3.63;;;;;;;7.80;100.00;97841.75;5022987;28;20045;-71
2024/02/19 07:41:19;;;;;;;6.15;3.35;;;;;;;7.93;100.00;97845.44;4993134;28;20433;-71
2024/02/19 07:43:45;;;;;;;6.50;3.90;;;;;;;8.04;100.00;97847.50;5009812;28;20045;-72
2024/02/19 07:46:11;;;;;;;4.50;3.15;;;;;;;8.12;100.00;97836.91;5010282;28;20049;-72
2024/02/19 07:48:37;;;;;;;3.85;2.78;;;;;;;8.31;100.00;97850.22;5015114;28;20129;-72
2024/02/19 07:51:03;;;;;;;3.60;2.53;;;;;;;8.40;100.00;97842.81;4993131;28;20065;-69
2024/02/19 07:53:29;;;;;;;6.28;2.83;;;;;;;8.37;100.00;97847.00;4984495;28;20045;-72
2024/02/19 07:56:07;;;;;;;3.67;2.90;;;;;;;8.48;100.00;97854.88;4995050;28;20106;-73
2024/02/19 07:58:34;;;;;;;3.83;2.72;;;;;;;8.53;100.00;97863.69;5007627;28;20064;-71
2024/02/19 08:00:59;;;;;;;3.90;2.65;;;;;;;8.53;100.00;97865.63;5014630;28;20054;-71
2024/02/19 08:03:25;;;;;;;4.45;2.40;;;;;;;8.61;100.00;97862.88;5001709;28;20080;-71
2024/02/19 08:05:51;;;;;;;3.78;2.78;;;;;;;8.68;100.00;97858.84;5018537;28;20527;-72
2024/02/19 08:08:17;;;;;;;5.47;3.15;;;;;;;8.77;100.00;97863.16;4997796;28;20037;-71
2024/02/19 08:10:42;;;;;;;3.97;2.58;;;;;;;8.91;100.00;97862.97;4999920;28;20613;-71
2024/02/19 08:13:08;;;;;;;4.85;2.22;;;;;;;8.76;100.00;97866.22;5000462;28;20050;-72
2024/02/19 08:15:37;;;;;;;3.92;2.58;;;;;;;8.45;100.00;97861.00;4982835;28;20544;-72
2024/02/19 08:18:03;;;;;;;4.22;2.75;;;;;;;8.42;100.00;97867.88;5010789;28;20045;-71
2024/02/19 08:20:30;;;;;;;4.38;2.97;;;;;;;8.33;100.00;97864.34;5004360;28;20069;-72
2024/02/19 08:22:55;;;;;;;5.90;2.80;;;;;;;8.18;100.00;97879.31;5022437;28;20056;-71
2024/02/19 08:25:21;;;;;;;3.30;2.78;;;;;;;8.20;100.00;97872.38;4994717;28;20185;-70
2024/02/19 08:27:46;;;;;;;4.63;2.72;;;;;;;8.27;100.00;97877.34;5014594;28;20050;-71
2024/02/19 08:30:12;;;;;;;3.35;2.60;;;;;;;8.22;100.00;97872.06;4987851;28;20065;-71
2024/02/19 08:32:38;;;;;;;4.00;2.88;;;;;;;8.31;100.00;97872.84;5028632;28;20437;-71
2024/02/19 08:35:04;;;;;;;3.28;2.50;;;;;;;8.20;100.00;97871.59;5013150;28;20053;-71
2024/02/19 08:37:29;;;;;;;7.13;2.72;;;;;;;8.32;100.00;97870.91;5003505;28;20046;-73
2024/02/19 08:39:55;;;;;;;5.13;2.80;;;;;;;8.30;100.00;97871.25;5024034;28;20081;-72
2024/02/19 08:42:20;;;;;;;7.45;3.15;;;;;;;8.33;100.00;97867.06;4987083;28;20537;-73
2024/02/19 08:44:46;;;;;;;7.25;3.20;;;;;;;8.37;100.00;97868.03;5004455;28;20052;-72
2024/02/19 08:47:11;;;;;;;7.05;2.92;;;;;;;8.39;100.00;97877.50;5005999;28;20053;-72
2024/02/19 08:49:37;;;;;;;7.00;2.90;;;;;;;8.21;100.00;97876.72;5018827;28;20045;-71
2024/02/19 08:52:04;;;;;;;3.70;2.67;;;;;;;8.24;100.00;97870.59;5010553;28;20045;-71
2024/02/19 08:54:30;;;;;;;3.28;2.50;;;;;;;8.32;100.00;97885.38;4997350;28;20049;-71
2024/02/19 08:56:55;;;;;;;3.45;2.72;;;;;;;8.33;100.00;97886.19;5020401;28;20074;-71
2024/02/19 08:59:20;;;;;;;5.07;2.70;;;;;;;8.74;100.00;97884.88;4999613;28;20505;-72
2024/02/19 09:01:46;;;;;;;4.43;2.33;;;;;;;8.83;100.00;97891.09;5031311;28;20052;-69
2024/02/19 09:04:11;;;;;;;3.40;2.25;;;;;;;8.85;100.00;97885.31;5026833;28;20054;-71
2024/02/19 09:06:37;;;;;;;4.55;2.45;;;;;;;8.82;100.00;97892.22;5029853;28;20080;-72
2024/02/19 09:09:03;;;;;;;5.03;2.25;;;;;;;9.34;100.00;97892.00;5017406;28;20401;-72
2024/02/19 09:11:28;;;;;;;3.40;1.90;;;;;;;10.21;100.00;97892.56;5030846;28;20388;-71
2024/02/19 09:13:54;;;;;;;3.25;1.60;;;;;;;10.78;100.00;97883.69;5027044;28;20072;-71
2024/02/19 09:16:19;;;;;;;3.53;2.00;;;;;;;11.25;100.00;97877.84;5021466;28;20041;-71
2024/02/19 09:18:44;;;;;;;2.50;2.00;;;;;;;10.83;100.00;97885.44;5026864;28;20033;-70
2024/02/19 09:21:10;;;;;;;3.30;1.95;;;;;;;11.14;100.00;97892.31;5021251;28;20049;-70
2024/02/19 09:23:36;;;;;;;2.97;1.80;;;;;;;11.18;100.00;97882.25;5026285;28;20069;-71
2024/02/19 09:26:01;;;;;;;5.35;2.05;;;;;;;10.82;100.00;97889.28;5027953;28;20527;-70
2024/02/19 09:28:27;;;;;;;2.38;1.70;;;;;;;10.79;100.00;97892.72;5006057;28;20131;-71
2024/02/19 09:30:53;;;;;;;3.17;1.60;;;;;;;10.76;100.00;97898.88;5025646;28;20412;-71
2024/02/19 09:33:19;;;;;;;4.20;1.70;;;;;;;10.33;100.00;97901.72;5014299;28;20034;-71
2024/02/19 09:35:44;;;;;;;3.72;1.55;;;;;;;10.52;100.00;97909.41;5023833;28;20049;-71
2024/02/19 09:38:10;;;;;;;7.72;4.72;;;;;;;10.22;100.00;97907.88;5022600;28;20080;-71
2024/02/19 09:40:36;;;;;;;8.65;4.75;;;;;;;10.29;100.00;97919.88;5022589;28;20519;-71
2024/02/19 09:43:05;;;;;;;8.57;6.18;;;;;;;10.11;100.00;97911.00;5013324;28;20080;-73
2024/02/19 09:45:32;;;;;;;3.10;2.33;;;;;;;10.10;100.00;97914.09;4983666;28;20038;-73
2024/02/19 09:48:00;;;;;;;3.83;2.30;;;;;;;10.02;100.00;97909.50;5008274;28;20049;-73
2024/02/19 09:50:27;;;;;;;3.70;2.05;;;;;;;10.02;100.00;97913.00;4999665;28;20083;-72
2024/02/19 09:53:22;;;;;;;3.50;2.28;;;;;;;9.90;100.00;97913.75;4987469;28;20045;-73
2024/02/19 09:55:48;;;;;;;3.17;2.20;;;;;;;10.12;100.00;97923.56;5026486;28;20183;-73
2024/02/19 09:58:14;;;;;;;2.40;1.90;;;;;;;10.22;100.00;97916.88;5020730;28;20063;-72
2024/02/19 10:00:40;;;;;;;3.85;2.17;;;;;;;10.19;100.00;97914.00;5026136;28;20041;-72
2024/02/19 10:03:07;;;;;;;3.50;2.20;;;;;;;9.93;100.00;97915.00;5012516;28;20049;-72
2024/02/19 10:05:33;;;;;;;4.60;1.92;;;;;;;10.04;100.00;97912.69;5035692;28;20093;-72
2024/02/19 10:08:03;;;;;;;5.90;1.95;;;;;;;10.10;100.00;97909.44;5033441;28;20041;-72
2024/02/19 10:10:29;;;;;;;7.05;2.30;;;;;;;10.28;100.00;97915.56;5018135;28;20048;-72
2024/02/19 10:12:55;;;;;;;4.47;2.20;;;;;;;10.18;100.00;97912.44;5024931;28;20488;-72
2024/02/19 10:15:20;;;;;;;3.15;1.40;;;;;;;10.44;100.00;97904.00;5025214;28;20054;-71
2024/02/19 10:17:47;;;;;;;2.58;1.50;;;;;;;10.36;100.00;97907.66;5009957;28;20048;-71
2024/02/19 10:20:13;;;;;;;1.83;1.30;;;;;;;10.63;100.00;97900.78;5019002;28;20204;-72
2024/02/19 10:22:39;;;;;;;6.20;1.30;;;;;;;10.60;100.00;97902.25;5025827;28;20179;-73
2024/02/19 10:25:07;;;;;;;4.45;1.55;;;;;;;10.50;100.00;97906.22;5028985;28;20037;-71
2024/02/19 10:27:34;;;;;;;2.90;1.10;;;;;;;10.30;100.00;97896.06;5002107;28;20068;-72
2024/02/19 10:30:00;;;;;;;5.05;1.60;;;;;;;10.32;100.00;97897.34;5023295;28;20050;-72
2024/02/19 10:32:26;;;;;;;5.40;1.38;;;;;;;10.48;100.00;97907.69;5021218;28;20025;-72
2024/02/19 10:34:52;;;;;;;5.28;1.83;;;;;;;10.73;100.00;97903.06;5024727;28;20068;-72
2024/02/19 10:37:18;;;;;;;9.35;1.50;;;;;;;10.82;100.00;97912.03;5002928;28;20083;-72
2024/02/19 10:39:43;;;;;;;11.02;4.13;;;;;;;11.08;100.00;97911.72;5026263;28;20037;-73
2024/02/19 10:42:09;;;;;;;5.35;2.45;;;;;;;11.13;100.00;97904.41;5016731;28;20054;-72
2024/02/19 10:44:35;;;;;;;8.88;5.28;;;;;;;11.59;100.00;97905.94;5024692;28;20065;-72
2024/02/19 10:47:05;;;;;;;30.85;5.05;;;;;;;11.56;100.00;97908.56;5020957;28;20074;-73
2024/02/19 10:49:31;;;;;;;9.82;3.63;;;;;;;11.81;100.00;97912.91;5025759;28;20161;-73
2024/02/19 10:51:57;;;;;;;9.50;2.40;;;;;;;11.79;100.00;97904.22;5031058;28;20053;-72
2024/02/19 10:54:23;;;;;;;4.28;1.27;;;;;;;11.86;100.00;97909.91;5024394;28;20045;-72
2024/02/19 10:56:50;;;;;;;5.10;1.15;;;;;;;11.57;100.00;97907.44;5005128;28;20052;-72
2024/02/19 10:59:16;;;;;;;6.32;1.40;;;;;;;11.51;100.00;97903.31;5017773;28;20041;-72
2024/02/19 11:01:44;;;;;;;3.85;1.35;;;;;;;11.63;100.00;97906.88;5024056;28;20459;-72
2024/02/19 11:04:15;;;;;;;7.40;1.50;;;;;;;11.60;100.00;97896.56;5020147;28;20049;-73
2024/02/19 11:06:50;;;;;;;2.65;1.13;;;;;;;11.43;100.00;97896.78;5023796;28;20057;-72
2024/02/19 11:09:16;;;;;;;7.70;1.52;;;;;;;11.48;100.00;97893.81;5003871;28;20038;-72
2024/02/19 11:12:00;;;;;;;5.70;1.55;;;;;;;11.34;100.00;97887.88;5005299;28;20053;-72
2024/02/19 11:14:33;;;;;;;15.48;2.30;;;;;;;11.57;100.00;97894.50;4993016;28;20068;-72
2024/02/19 11:17:00;;;;;;;8.85;1.80;;;;;;;11.53;100.00;97890.06;4990290;28;20060;-72
2024/02/19 11:19:27;;;;;;;7.20;2.72;;;;;;;11.73;100.00;97882.84;4993868;28;20163;-72
2024/02/19 11:22:04;;;;;;;4.03;1.40;;;;;;;12.50;100.00;97895.72;5022161;28;20053;-72
2024/02/19 11:24:31;;;;;;;6.05;1.50;;;;;;;12.75;100.00;97890.91;5025338;28;20049;-72
2024/02/19 11:26:57;;;;;;;2.78;1.17;;;;;;;12.97;100.00;97890.28;5034672;28;20045;-72